Main page
METAR-TAF:

METAR-TAF

Airports :

Samedan Airport

St. Moritz, Switzerland

latitude: 46-32-03N, longitude: 9-53-03E, elevation: 1707 m

Current weather observation

The report was made 33 minutes ago, at 01:20 UTC
Wind 3 kt from the South/Southwest
Temperature -19°C
Humidity 77%
Pressure 1009 hPa
Visibility 10 km or more
no clouds below 1500 m and no cumulonimbus

METAR: LSZS 200120Z AUTO 20003KT CAVOK M19/M22 Q1009

Time: 02:53 (01:53 UTC)

Forecast

The report was made 11 hours and 28 minutes ago, at 14:25 UTC
Forecast valid from 19 at 15 UTC to 19 at 24 UTC
Wind 3 kt from variable directions
Visibility 10 km or more
Few clouds at a height of 5000 ft
Temporary
from 19 at 15 UTC to 19 at 24 UTC
Visibility 10 km or more
no clouds below 1500 m and no cumulonimbus

TAF: LSZS 191425Z 1915/1924 VRB03KT 9999 FEW050 TXM07/1915Z TEMPO 1915/1924 CAVOK

Weather observations and forecasts of more than 4000 airports (METAR and TAF reports).

The available stations are represented by yellow and red dots on the map.

Hover mouse over dot to see the name of the station.

Then click to see weather observations and forecasts.

To change the map : click on the green buttons with a black cross to zoom in, on the green button with a dash to zoom out, or on the green arrows for adjacent maps.


METAR-TAF: